MET'MAP v2.0
soon released !

Expected late october,
this new version will be
more efficient, smarter,
and hosted on a brand new
server x3 powerfull...
...and still free !


Not compatible ?
Try the mobile version !

LOG IN : | Subscribe | Disclaimer | Who is Orbifly ? |
ICAO code :

TAF - LTFE Bodrum - 03 Apr 2020 22:36 UTC - Data Source NOAA   


- Airport Elevation : 21 ft
- IATA code : BJV
- No reported NOTAMs.


LTFE - Bodrum

Latest METAR recorded : 2015/08/11 07:50 LTFE 110750Z 28008KT 250V310 9999 FEW035 30/21 Q1010 NOSIG
TAF TAF LTFE
Valid from the 03 at 18:00 until the 04 at 18:00 UTC


031640Z 0318/0418 VRB02KT 9999 FEW035 BKN100
PROB40
TEMPO 0322/0402 -SHRA BKN030 BKN090
BECMG 0406/0408 13015KT
BECMG 0408/0410 12028G45KT
PROB40
TEMPO 0414/0418 12040G55KT

Source NOAA


MET'MAP, your aeronautical weather chart ! - Copyright ORBIFLY December 2007

Programming & Development : Alexandra Zaïnal
Co-Developer : Marc-Olivier Méhu
Technical & hardware support : Manuel Goepfert
Concept & Financing : Baudouin d'Aumeries